Pruden, Tennessee
Current Conditions -  °F | °C
As of 11:15 AM on Friday 21 Nov 2014 (Local Time) from K1A6 Reporting Station
Clear Clear  
Wind Chill: 37°   Ceiling: Unl
Heat Index: 37°   Visibility: 10mi
Dew Point: 11°   Wind: 0mph
Humidity: 35%   Direction: NA
Pressure: 30.48"   Gusts: NA
Location:  36.59°N, 83.9°W
Report Text: K1A6 211615Z AUTO 00000KT 10SM CLR 03/M12 A3048 RMK AO2 T00251118
Loading
Personal Weather Stations






























Interactive Weather Map New forecast layout! Learn more

10-Day Weather Forecast

Advertisements
Track Severe Weather on mobile